Terminal Aerodrome Forecast
Issued by NWS

Current Version | Previous Version | Graphics & Text | Print | Product List | Glossary On
Versions: 1 2 3 4 5 6 7 8 9 10 11 12 13 14 15 16 17 18 19 20 21 22 23
000
FTUS41 KPBZ 281915 AAA
TAFMGW
TAF AMD
KMGW 281915Z 2819/2918 25010KT P6SM -SHRA BKN015
     FM282100 26010KT P6SM VCSH BKN025
     FM290100 22005KT P6SM SCT025
     FM290900 28005KT 3SM BR SCT015
     FM291500 16005KT P6SM SCT150=

USA.gov is the U.S. government's official web portal to all federal, state and local government web resources and services.